sensor_id;sensor_type;location;lat;lon;timestamp;P1;durP1;ratioP1;P2;durP2;ratioP2
3922;SDS011;1976;51.694;6.256;2023-11-21T00:00:54;17.40;;;9.00;;
3922;SDS011;1976;51.694;6.256;2023-11-21T00:03:20;26.90;;;9.37;;
3922;SDS011;1976;51.694;6.256;2023-11-21T00:05:48;22.83;;;9.33;;
3922;SDS011;1976;51.694;6.256;2023-11-21T00:08:14;18.87;;;8.43;;
3922;SDS011;1976;51.694;6.256;2023-11-21T00:10:39;12.33;;;7.93;;
3922;SDS011;1976;51.694;6.256;2023-11-21T00:13:05;17.10;;;7.43;;
3922;SDS011;1976;51.694;6.256;2023-11-21T00:15:31;13.17;;;7.13;;
3922;SDS011;1976;51.694;6.256;2023-11-21T00:17:57;19.40;;;8.27;;
3922;SDS011;1976;51.694;6.256;2023-11-21T00:20:22;15.70;;;8.17;;
3922;SDS011;1976;51.694;6.256;2023-11-21T00:22:48;14.00;;;8.60;;
3922;SDS011;1976;51.694;6.256;2023-11-21T00:25:13;14.77;;;8.40;;
3922;SDS011;1976;51.694;6.256;2023-11-21T00:27:40;20.20;;;8.83;;
3922;SDS011;1976;51.694;6.256;2023-11-21T00:30:06;16.60;;;9.50;;
3922;SDS011;1976;51.694;6.256;2023-11-21T00:32:34;12.10;;;7.30;;
3922;SDS011;1976;51.694;6.256;2023-11-21T00:35:01;14.27;;;7.63;;
3922;SDS011;1976;51.694;6.256;2023-11-21T00:37:26;24.03;;;8.43;;
3922;SDS011;1976;51.694;6.256;2023-11-21T00:39:52;14.63;;;9.00;;
3922;SDS011;1976;51.694;6.256;2023-11-21T00:42:18;17.60;;;7.63;;
3922;SDS011;1976;51.694;6.256;2023-11-21T00:44:43;13.27;;;9.07;;
3922;SDS011;1976;51.694;6.256;2023-11-21T00:47:09;20.93;;;9.07;;
3922;SDS011;1976;51.694;6.256;2023-11-21T00:49:34;16.80;;;8.23;;
3922;SDS011;1976;51.694;6.256;2023-11-21T00:52:00;13.23;;;8.90;;
3922;SDS011;1976;51.694;6.256;2023-11-21T00:54:27;17.93;;;8.87;;
3922;SDS011;1976;51.694;6.256;2023-11-21T00:56:53;21.10;;;8.53;;
3922;SDS011;1976;51.694;6.256;2023-11-21T00:59:18;19.13;;;9.10;;
3922;SDS011;1976;51.694;6.256;2023-11-21T01:01:44;30.27;;;9.70;;
3922;SDS011;1976;51.694;6.256;2023-11-21T01:04:09;15.27;;;9.67;;
3922;SDS011;1976;51.694;6.256;2023-11-21T01:06:35;18.50;;;9.50;;
3922;SDS011;1976;51.694;6.256;2023-11-21T01:09:01;19.60;;;9.80;;
3922;SDS011;1976;51.694;6.256;2023-11-21T01:11:32;20.80;;;10.27;;
3922;SDS011;1976;51.694;6.256;2023-11-21T01:14:01;12.37;;;7.80;;
3922;SDS011;1976;51.694;6.256;2023-11-21T01:16:28;16.67;;;9.80;;
3922;SDS011;1976;51.694;6.256;2023-11-21T01:18:54;18.33;;;9.20;;
3922;SDS011;1976;51.694;6.256;2023-11-21T01:21:20;25.53;;;9.03;;
3922;SDS011;1976;51.694;6.256;2023-11-21T01:23:46;11.37;;;8.47;;
3922;SDS011;1976;51.694;6.256;2023-11-21T01:26:12;22.70;;;9.83;;
3922;SDS011;1976;51.694;6.256;2023-11-21T01:28:38;16.00;;;9.23;;
3922;SDS011;1976;51.694;6.256;2023-11-21T01:31:04;18.47;;;10.03;;
3922;SDS011;1976;51.694;6.256;2023-11-21T01:33:32;18.97;;;9.73;;
3922;SDS011;1976;51.694;6.256;2023-11-21T01:35:58;20.10;;;10.50;;
3922;SDS011;1976;51.694;6.256;2023-11-21T01:38:25;17.77;;;10.17;;
3922;SDS011;1976;51.694;6.256;2023-11-21T01:40:51;20.37;;;10.83;;
3922;SDS011;1976;51.694;6.256;2023-11-21T01:43:16;20.23;;;9.33;;
3922;SDS011;1976;51.694;6.256;2023-11-21T01:45:42;19.40;;;10.50;;
3922;SDS011;1976;51.694;6.256;2023-11-21T01:48:10;21.80;;;11.23;;
3922;SDS011;1976;51.694;6.256;2023-11-21T01:50:36;21.20;;;9.87;;
3922;SDS011;1976;51.694;6.256;2023-11-21T01:53:02;24.67;;;11.07;;
3922;SDS011;1976;51.694;6.256;2023-11-21T01:55:28;24.90;;;11.80;;
3922;SDS011;1976;51.694;6.256;2023-11-21T01:57:55;14.60;;;10.57;;
3922;SDS011;1976;51.694;6.256;2023-11-21T02:00:22;28.60;;;11.57;;
3922;SDS011;1976;51.694;6.256;2023-11-21T02:02:48;28.60;;;11.17;;
3922;SDS011;1976;51.694;6.256;2023-11-21T02:05:15;23.33;;;11.00;;
3922;SDS011;1976;51.694;6.256;2023-11-21T02:07:45;28.27;;;12.33;;
3922;SDS011;1976;51.694;6.256;2023-11-21T02:10:14;25.87;;;10.37;;
3922;SDS011;1976;51.694;6.256;2023-11-21T02:12:41;22.07;;;12.50;;
3922;SDS011;1976;51.694;6.256;2023-11-21T02:15:07;27.67;;;11.20;;
3922;SDS011;1976;51.694;6.256;2023-11-21T02:17:40;22.77;;;12.33;;
3922;SDS011;1976;51.694;6.256;2023-11-21T02:20:09;19.27;;;11.37;;
3922;SDS011;1976;51.694;6.256;2023-11-21T02:22:43;22.10;;;12.70;;
3922;SDS011;1976;51.694;6.256;2023-11-21T02:25:23;27.77;;;13.90;;
3922;SDS011;1976;51.694;6.256;2023-11-21T02:27:49;27.67;;;12.60;;
3922;SDS011;1976;51.694;6.256;2023-11-21T02:30:16;25.07;;;13.70;;
3922;SDS011;1976;51.694;6.256;2023-11-21T02:32:43;33.33;;;15.10;;
3922;SDS011;1976;51.694;6.256;2023-11-21T02:35:09;38.73;;;16.23;;
3922;SDS011;1976;51.694;6.256;2023-11-21T02:37:37;33.33;;;15.17;;
3922;SDS011;1976;51.694;6.256;2023-11-21T02:40:04;27.20;;;15.07;;
3922;SDS011;1976;51.694;6.256;2023-11-21T02:42:34;40.17;;;15.20;;
3922;SDS011;1976;51.694;6.256;2023-11-21T02:45:00;33.90;;;16.40;;
3922;SDS011;1976;51.694;6.256;2023-11-21T02:47:26;44.07;;;16.27;;
3922;SDS011;1976;51.694;6.256;2023-11-21T02:49:52;35.37;;;15.90;;
3922;SDS011;1976;51.694;6.256;2023-11-21T02:52:18;32.53;;;14.60;;
3922;SDS011;1976;51.694;6.256;2023-11-21T02:54:44;62.10;;;16.53;;
3922;SDS011;1976;51.694;6.256;2023-11-21T02:57:10;41.43;;;16.13;;
3922;SDS011;1976;51.694;6.256;2023-11-21T02:59:36;51.83;;;16.90;;
3922;SDS011;1976;51.694;6.256;2023-11-21T03:02:02;53.33;;;16.63;;
3922;SDS011;1976;51.694;6.256;2023-11-21T03:04:28;42.03;;;15.20;;
3922;SDS011;1976;51.694;6.256;2023-11-21T03:06:54;28.73;;;13.27;;
3922;SDS011;1976;51.694;6.256;2023-11-21T03:09:20;37.03;;;15.27;;
3922;SDS011;1976;51.694;6.256;2023-11-21T03:11:45;39.50;;;15.47;;
3922;SDS011;1976;51.694;6.256;2023-11-21T03:14:11;59.30;;;17.07;;
3922;SDS011;1976;51.694;6.256;2023-11-21T03:16:37;64.20;;;18.03;;
3922;SDS011;1976;51.694;6.256;2023-11-21T03:19:04;48.40;;;17.07;;
3922;SDS011;1976;51.694;6.256;2023-11-21T03:21:30;57.87;;;16.93;;
3922;SDS011;1976;51.694;6.256;2023-11-21T03:23:56;70.30;;;19.67;;
3922;SDS011;1976;51.694;6.256;2023-11-21T03:26:22;52.53;;;16.67;;
3922;SDS011;1976;51.694;6.256;2023-11-21T03:28:48;50.00;;;16.60;;
3922;SDS011;1976;51.694;6.256;2023-11-21T03:31:14;48.67;;;15.03;;
3922;SDS011;1976;51.694;6.256;2023-11-21T03:33:42;53.23;;;14.43;;
3922;SDS011;1976;51.694;6.256;2023-11-21T03:36:08;28.20;;;13.70;;
3922;SDS011;1976;51.694;6.256;2023-11-21T03:38:34;42.63;;;14.83;;
3922;SDS011;1976;51.694;6.256;2023-11-21T03:41:02;28.33;;;13.80;;
3922;SDS011;1976;51.694;6.256;2023-11-21T03:43:29;39.13;;;15.20;;
3922;SDS011;1976;51.694;6.256;2023-11-21T03:45:55;76.03;;;18.40;;
3922;SDS011;1976;51.694;6.256;2023-11-21T03:48:21;48.03;;;17.40;;
3922;SDS011;1976;51.694;6.256;2023-11-21T03:50:48;63.67;;;16.50;;
3922;SDS011;1976;51.694;6.256;2023-11-21T03:53:13;50.47;;;16.03;;
3922;SDS011;1976;51.694;6.256;2023-11-21T03:55:39;44.30;;;15.03;;
3922;SDS011;1976;51.694;6.256;2023-11-21T03:58:05;69.10;;;17.20;;
3922;SDS011;1976;51.694;6.256;2023-11-21T04:00:30;47.93;;;13.27;;
3922;SDS011;1976;51.694;6.256;2023-11-21T04:02:56;59.40;;;14.30;;
3922;SDS011;1976;51.694;6.256;2023-11-21T04:05:22;62.17;;;15.50;;
3922;SDS011;1976;51.694;6.256;2023-11-21T04:07:51;36.40;;;14.93;;
3922;SDS011;1976;51.694;6.256;2023-11-21T04:10:17;46.40;;;15.27;;
3922;SDS011;1976;51.694;6.256;2023-11-21T04:12:43;51.70;;;15.57;;
3922;SDS011;1976;51.694;6.256;2023-11-21T04:15:10;30.53;;;10.97;;
3922;SDS011;1976;51.694;6.256;2023-11-21T04:17:36;53.33;;;15.00;;
3922;SDS011;1976;51.694;6.256;2023-11-21T04:20:03;79.33;;;17.40;;
3922;SDS011;1976;51.694;6.256;2023-11-21T04:22:34;58.83;;;15.00;;
3922;SDS011;1976;51.694;6.256;2023-11-21T04:25:24;27.40;;;11.83;;
3922;SDS011;1976;51.694;6.256;2023-11-21T04:27:50;40.30;;;15.10;;
3922;SDS011;1976;51.694;6.256;2023-11-21T04:30:16;52.43;;;12.67;;
3922;SDS011;1976;51.694;6.256;2023-11-21T04:32:41;62.83;;;16.30;;
3922;SDS011;1976;51.694;6.256;2023-11-21T04:35:07;54.10;;;15.40;;
3922;SDS011;1976;51.694;6.256;2023-11-21T04:37:36;53.07;;;16.63;;
3922;SDS011;1976;51.694;6.256;2023-11-21T04:40:02;38.40;;;11.63;;
3922;SDS011;1976;51.694;6.256;2023-11-21T04:42:31;26.07;;;13.00;;
3922;SDS011;1976;51.694;6.256;2023-11-21T04:45:01;54.03;;;14.40;;
3922;SDS011;1976;51.694;6.256;2023-11-21T04:47:26;29.07;;;13.10;;
3922;SDS011;1976;51.694;6.256;2023-11-21T04:49:52;30.90;;;12.93;;
3922;SDS011;1976;51.694;6.256;2023-11-21T04:52:17;27.40;;;12.77;;
3922;SDS011;1976;51.694;6.256;2023-11-21T04:54:45;53.50;;;15.33;;
3922;SDS011;1976;51.694;6.256;2023-11-21T04:57:10;28.67;;;13.33;;
3922;SDS011;1976;51.694;6.256;2023-11-21T04:59:37;54.50;;;13.97;;
3922;SDS011;1976;51.694;6.256;2023-11-21T05:02:02;42.20;;;13.27;;
3922;SDS011;1976;51.694;6.256;2023-11-21T05:04:30;75.33;;;15.33;;
3922;SDS011;1976;51.694;6.256;2023-11-21T05:06:55;25.80;;;15.00;;
3922;SDS011;1976;51.694;6.256;2023-11-21T05:09:21;28.67;;;14.63;;
3922;SDS011;1976;51.694;6.256;2023-11-21T05:11:47;35.97;;;14.67;;
3922;SDS011;1976;51.694;6.256;2023-11-21T05:14:12;34.63;;;14.13;;
3922;SDS011;1976;51.694;6.256;2023-11-21T05:16:39;30.40;;;14.87;;
3922;SDS011;1976;51.694;6.256;2023-11-21T05:19:05;39.40;;;17.20;;
3922;SDS011;1976;51.694;6.256;2023-11-21T05:21:31;31.63;;;14.67;;
3922;SDS011;1976;51.694;6.256;2023-11-21T05:23:57;24.37;;;13.47;;
3922;SDS011;1976;51.694;6.256;2023-11-21T05:26:23;45.50;;;14.13;;
3922;SDS011;1976;51.694;6.256;2023-11-21T05:28:49;32.70;;;13.73;;
3922;SDS011;1976;51.694;6.256;2023-11-21T05:31:15;59.03;;;16.87;;
3922;SDS011;1976;51.694;6.256;2023-11-21T05:33:41;54.67;;;15.53;;
3922;SDS011;1976;51.694;6.256;2023-11-21T05:36:07;40.50;;;15.70;;
3922;SDS011;1976;51.694;6.256;2023-11-21T05:38:33;36.17;;;16.57;;
3922;SDS011;1976;51.694;6.256;2023-11-21T05:41:00;34.03;;;14.30;;
3922;SDS011;1976;51.694;6.256;2023-11-21T05:43:26;32.27;;;14.63;;
3922;SDS011;1976;51.694;6.256;2023-11-21T05:45:54;62.37;;;16.20;;
3922;SDS011;1976;51.694;6.256;2023-11-21T05:48:20;26.27;;;14.37;;
3922;SDS011;1976;51.694;6.256;2023-11-21T05:50:46;33.13;;;16.40;;
3922;SDS011;1976;51.694;6.256;2023-11-21T05:53:13;28.33;;;13.90;;
3922;SDS011;1976;51.694;6.256;2023-11-21T05:55:41;29.30;;;15.73;;
3922;SDS011;1976;51.694;6.256;2023-11-21T05:58:07;26.20;;;13.57;;
3922;SDS011;1976;51.694;6.256;2023-11-21T06:00:33;32.53;;;15.33;;
3922;SDS011;1976;51.694;6.256;2023-11-21T06:02:58;25.20;;;14.13;;
3922;SDS011;1976;51.694;6.256;2023-11-21T06:05:25;32.40;;;15.60;;
3922;SDS011;1976;51.694;6.256;2023-11-21T06:07:51;32.00;;;15.43;;
3922;SDS011;1976;51.694;6.256;2023-11-21T06:10:22;24.20;;;14.67;;
3922;SDS011;1976;51.694;6.256;2023-11-21T06:12:48;24.07;;;14.37;;
3922;SDS011;1976;51.694;6.256;2023-11-21T06:15:15;34.43;;;15.53;;
3922;SDS011;1976;51.694;6.256;2023-11-21T06:17:44;27.80;;;15.33;;
3922;SDS011;1976;51.694;6.256;2023-11-21T06:20:14;30.90;;;14.90;;
3922;SDS011;1976;51.694;6.256;2023-11-21T06:22:41;31.10;;;16.67;;
3922;SDS011;1976;51.694;6.256;2023-11-21T06:25:08;28.27;;;14.50;;
3922;SDS011;1976;51.694;6.256;2023-11-21T06:27:38;39.10;;;16.50;;
3922;SDS011;1976;51.694;6.256;2023-11-21T06:30:07;32.00;;;15.43;;
3922;SDS011;1976;51.694;6.256;2023-11-21T06:32:34;51.53;;;15.77;;
3922;SDS011;1976;51.694;6.256;2023-11-21T06:35:04;53.53;;;17.30;;
3922;SDS011;1976;51.694;6.256;2023-11-21T06:37:31;37.63;;;18.33;;
3922;SDS011;1976;51.694;6.256;2023-11-21T06:39:57;33.10;;;16.93;;
3922;SDS011;1976;51.694;6.256;2023-11-21T06:42:24;27.97;;;15.37;;
3922;SDS011;1976;51.694;6.256;2023-11-21T06:44:50;29.40;;;16.27;;
3922;SDS011;1976;51.694;6.256;2023-11-21T06:47:22;20.20;;;12.87;;
3922;SDS011;1976;51.694;6.256;2023-11-21T06:49:51;27.30;;;14.27;;
3922;SDS011;1976;51.694;6.256;2023-11-21T06:52:18;25.97;;;15.50;;
3922;SDS011;1976;51.694;6.256;2023-11-21T06:54:44;51.53;;;16.97;;
3922;SDS011;1976;51.694;6.256;2023-11-21T06:57:10;65.13;;;16.50;;
3922;SDS011;1976;51.694;6.256;2023-11-21T06:59:36;37.63;;;17.77;;
3922;SDS011;1976;51.694;6.256;2023-11-21T07:02:02;34.93;;;15.83;;
3922;SDS011;1976;51.694;6.256;2023-11-21T07:04:28;26.80;;;14.20;;
3922;SDS011;1976;51.694;6.256;2023-11-21T07:06:53;39.60;;;16.83;;
3922;SDS011;1976;51.694;6.256;2023-11-21T07:09:20;53.77;;;18.50;;
3922;SDS011;1976;51.694;6.256;2023-11-21T07:11:50;50.17;;;17.07;;
3922;SDS011;1976;51.694;6.256;2023-11-21T07:14:20;51.30;;;17.30;;
3922;SDS011;1976;51.694;6.256;2023-11-21T07:16:46;43.63;;;15.73;;
3922;SDS011;1976;51.694;6.256;2023-11-21T07:19:12;32.10;;;14.40;;
3922;SDS011;1976;51.694;6.256;2023-11-21T07:21:39;80.03;;;16.60;;
3922;SDS011;1976;51.694;6.256;2023-11-21T07:24:06;30.80;;;15.90;;
3922;SDS011;1976;51.694;6.256;2023-11-21T07:26:33;37.07;;;16.30;;
3922;SDS011;1976;51.694;6.256;2023-11-21T07:29:03;41.33;;;17.27;;
3922;SDS011;1976;51.694;6.256;2023-11-21T07:31:28;36.80;;;17.53;;
3922;SDS011;1976;51.694;6.256;2023-11-21T07:33:54;27.97;;;16.00;;
3922;SDS011;1976;51.694;6.256;2023-11-21T07:36:23;31.53;;;14.50;;
3922;SDS011;1976;51.694;6.256;2023-11-21T07:38:49;27.67;;;15.03;;
3922;SDS011;1976;51.694;6.256;2023-11-21T07:41:15;29.70;;;15.70;;
3922;SDS011;1976;51.694;6.256;2023-11-21T07:43:42;27.70;;;14.03;;
3922;SDS011;1976;51.694;6.256;2023-11-21T07:46:10;35.93;;;15.50;;
3922;SDS011;1976;51.694;6.256;2023-11-21T07:48:37;24.13;;;11.60;;
3922;SDS011;1976;51.694;6.256;2023-11-21T07:51:04;27.93;;;14.13;;
3922;SDS011;1976;51.694;6.256;2023-11-21T07:53:30;23.40;;;13.40;;
3922;SDS011;1976;51.694;6.256;2023-11-21T07:55:57;21.63;;;11.80;;
3922;SDS011;1976;51.694;6.256;2023-11-21T07:58:30;23.97;;;13.10;;
3922;SDS011;1976;51.694;6.256;2023-11-21T08:00:56;24.13;;;13.47;;
3922;SDS011;1976;51.694;6.256;2023-11-21T08:03:22;24.63;;;13.73;;
3922;SDS011;1976;51.694;6.256;2023-11-21T08:05:48;41.30;;;15.40;;
3922;SDS011;1976;51.694;6.256;2023-11-21T08:08:14;24.47;;;13.20;;
3922;SDS011;1976;51.694;6.256;2023-11-21T08:10:40;18.47;;;11.93;;
3922;SDS011;1976;51.694;6.256;2023-11-21T08:13:07;21.97;;;12.37;;
3922;SDS011;1976;51.694;6.256;2023-11-21T08:15:34;24.93;;;13.10;;
3922;SDS011;1976;51.694;6.256;2023-11-21T08:18:02;25.40;;;13.57;;
3922;SDS011;1976;51.694;6.256;2023-11-21T08:20:28;21.20;;;13.13;;
3922;SDS011;1976;51.694;6.256;2023-11-21T08:22:54;18.10;;;11.80;;
3922;SDS011;1976;51.694;6.256;2023-11-21T08:25:22;21.70;;;12.97;;
3922;SDS011;1976;51.694;6.256;2023-11-21T08:27:47;23.40;;;11.43;;
3922;SDS011;1976;51.694;6.256;2023-11-21T08:30:14;20.27;;;12.90;;
3922;SDS011;1976;51.694;6.256;2023-11-21T08:32:42;16.20;;;10.17;;
3922;SDS011;1976;51.694;6.256;2023-11-21T08:35:08;21.37;;;12.10;;
3922;SDS011;1976;51.694;6.256;2023-11-21T08:37:34;25.20;;;12.20;;
3922;SDS011;1976;51.694;6.256;2023-11-21T08:40:04;19.37;;;12.10;;
3922;SDS011;1976;51.694;6.256;2023-11-21T08:42:34;21.20;;;12.73;;
3922;SDS011;1976;51.694;6.256;2023-11-21T08:45:01;24.13;;;11.97;;
3922;SDS011;1976;51.694;6.256;2023-11-21T08:47:27;21.93;;;13.47;;
3922;SDS011;1976;51.694;6.256;2023-11-21T08:49:53;19.63;;;12.40;;
3922;SDS011;1976;51.694;6.256;2023-11-21T08:52:19;18.13;;;10.10;;
3922;SDS011;1976;51.694;6.256;2023-11-21T08:54:49;18.70;;;11.63;;
3922;SDS011;1976;51.694;6.256;2023-11-21T08:57:23;19.67;;;12.83;;
3922;SDS011;1976;51.694;6.256;2023-11-21T08:59:49;19.70;;;12.97;;
3922;SDS011;1976;51.694;6.256;2023-11-21T09:02:23;21.30;;;12.37;;
3922;SDS011;1976;51.694;6.256;2023-11-21T09:04:51;19.50;;;13.20;;
3922;SDS011;1976;51.694;6.256;2023-11-21T09:07:20;20.83;;;12.97;;
3922;SDS011;1976;51.694;6.256;2023-11-21T09:09:46;19.77;;;13.20;;
3922;SDS011;1976;51.694;6.256;2023-11-21T09:12:13;23.67;;;15.27;;
3922;SDS011;1976;51.694;6.256;2023-11-21T09:14:39;26.43;;;14.60;;
3922;SDS011;1976;51.694;6.256;2023-11-21T09:17:05;17.53;;;11.23;;
3922;SDS011;1976;51.694;6.256;2023-11-21T09:19:38;23.13;;;14.70;;
3922;SDS011;1976;51.694;6.256;2023-11-21T09:22:04;21.57;;;14.13;;
3922;SDS011;1976;51.694;6.256;2023-11-21T09:24:31;33.43;;;13.30;;
3922;SDS011;1976;51.694;6.256;2023-11-21T09:26:57;23.20;;;12.60;;
3922;SDS011;1976;51.694;6.256;2023-11-21T09:29:25;24.80;;;14.43;;
3922;SDS011;1976;51.694;6.256;2023-11-21T09:31:57;20.17;;;11.90;;
3922;SDS011;1976;51.694;6.256;2023-11-21T09:34:26;21.00;;;14.00;;
3922;SDS011;1976;51.694;6.256;2023-11-21T09:36:52;22.70;;;13.93;;
3922;SDS011;1976;51.694;6.256;2023-11-21T09:39:18;21.57;;;12.77;;
3922;SDS011;1976;51.694;6.256;2023-11-21T09:41:51;25.90;;;12.30;;
3922;SDS011;1976;51.694;6.256;2023-11-21T09:44:29;23.03;;;12.57;;
3922;SDS011;1976;51.694;6.256;2023-11-21T09:47:00;20.83;;;13.40;;
3922;SDS011;1976;51.694;6.256;2023-11-21T09:49:28;22.97;;;14.13;;
3922;SDS011;1976;51.694;6.256;2023-11-21T09:52:00;25.77;;;14.43;;
3922;SDS011;1976;51.694;6.256;2023-11-21T09:54:31;19.70;;;14.00;;
3922;SDS011;1976;51.694;6.256;2023-11-21T09:57:00;20.10;;;13.80;;
3922;SDS011;1976;51.694;6.256;2023-11-21T09:59:25;24.60;;;13.30;;
3922;SDS011;1976;51.694;6.256;2023-11-21T10:01:59;23.00;;;13.50;;
3922;SDS011;1976;51.694;6.256;2023-11-21T10:04:25;20.07;;;11.90;;
3922;SDS011;1976;51.694;6.256;2023-11-21T10:06:52;19.87;;;12.93;;
3922;SDS011;1976;51.694;6.256;2023-11-21T10:09:19;26.03;;;12.80;;
3922;SDS011;1976;51.694;6.256;2023-11-21T10:11:48;17.50;;;12.37;;
3922;SDS011;1976;51.694;6.256;2023-11-21T10:14:17;18.80;;;13.17;;
3922;SDS011;1976;51.694;6.256;2023-11-21T10:16:45;21.83;;;13.10;;
3922;SDS011;1976;51.694;6.256;2023-11-21T10:19:14;20.50;;;13.87;;
3922;SDS011;1976;51.694;6.256;2023-11-21T10:21:41;20.13;;;12.57;;
3922;SDS011;1976;51.694;6.256;2023-11-21T10:24:07;22.10;;;13.00;;
3922;SDS011;1976;51.694;6.256;2023-11-21T10:26:33;18.43;;;12.47;;
3922;SDS011;1976;51.694;6.256;2023-11-21T10:29:02;22.80;;;14.33;;
3922;SDS011;1976;51.694;6.256;2023-11-21T10:31:31;15.30;;;11.37;;
3922;SDS011;1976;51.694;6.256;2023-11-21T10:36:44;23.50;;;13.20;;
3922;SDS011;1976;51.694;6.256;2023-11-21T10:39:14;19.33;;;11.60;;
3922;SDS011;1976;51.694;6.256;2023-11-21T10:41:48;20.80;;;13.30;;
3922;SDS011;1976;51.694;6.256;2023-11-21T10:44:15;16.47;;;11.00;;
3922;SDS011;1976;51.694;6.256;2023-11-21T10:46:51;24.60;;;13.30;;
3922;SDS011;1976;51.694;6.256;2023-11-21T10:49:21;20.00;;;13.33;;
3922;SDS011;1976;51.694;6.256;2023-11-21T10:51:50;19.87;;;13.50;;
3922;SDS011;1976;51.694;6.256;2023-11-21T10:54:21;22.73;;;11.00;;
3922;SDS011;1976;51.694;6.256;2023-11-21T10:56:53;21.10;;;13.10;;
3922;SDS011;1976;51.694;6.256;2023-11-21T10:59:23;19.83;;;12.50;;
3922;SDS011;1976;51.694;6.256;2023-11-21T11:01:57;17.53;;;12.57;;
3922;SDS011;1976;51.694;6.256;2023-11-21T11:04:27;20.60;;;14.17;;
3922;SDS011;1976;51.694;6.256;2023-11-21T11:06:54;20.37;;;13.10;;
3922;SDS011;1976;51.694;6.256;2023-11-21T11:09:22;20.87;;;14.37;;
3922;SDS011;1976;51.694;6.256;2023-11-21T11:11:48;28.80;;;13.37;;
3922;SDS011;1976;51.694;6.256;2023-11-21T11:14:14;20.97;;;13.13;;
3922;SDS011;1976;51.694;6.256;2023-11-21T11:16:41;25.43;;;14.90;;
3922;SDS011;1976;51.694;6.256;2023-11-21T11:19:08;24.90;;;14.47;;
3922;SDS011;1976;51.694;6.256;2023-11-21T11:21:38;19.93;;;12.80;;
3922;SDS011;1976;51.694;6.256;2023-11-21T11:24:20;22.80;;;13.77;;
3922;SDS011;1976;51.694;6.256;2023-11-21T11:27:30;26.43;;;15.80;;
3922;SDS011;1976;51.694;6.256;2023-11-21T11:35:56;26.10;;;13.87;;
3922;SDS011;1976;51.694;6.256;2023-11-21T11:38:32;30.93;;;15.03;;
3922;SDS011;1976;51.694;6.256;2023-11-21T11:41:01;25.33;;;14.40;;
3922;SDS011;1976;51.694;6.256;2023-11-21T11:43:31;28.67;;;14.40;;
3922;SDS011;1976;51.694;6.256;2023-11-21T11:46:09;20.80;;;13.40;;
3922;SDS011;1976;51.694;6.256;2023-11-21T11:48:40;23.93;;;12.30;;
3922;SDS011;1976;51.694;6.256;2023-11-21T11:51:07;18.43;;;13.63;;
3922;SDS011;1976;51.694;6.256;2023-11-21T11:53:39;20.30;;;12.27;;
3922;SDS011;1976;51.694;6.256;2023-11-21T11:59:00;16.23;;;11.50;;
3922;SDS011;1976;51.694;6.256;2023-11-21T12:01:30;17.70;;;12.40;;
3922;SDS011;1976;51.694;6.256;2023-11-21T12:06:45;21.23;;;11.40;;
3922;SDS011;1976;51.694;6.256;2023-11-21T12:09:23;18.03;;;11.90;;
3922;SDS011;1976;51.694;6.256;2023-11-21T12:11:51;17.70;;;10.70;;
3922;SDS011;1976;51.694;6.256;2023-11-21T12:14:18;19.80;;;11.03;;
3922;SDS011;1976;51.694;6.256;2023-11-21T12:16:44;17.17;;;10.97;;
3922;SDS011;1976;51.694;6.256;2023-11-21T12:19:10;20.30;;;11.90;;
3922;SDS011;1976;51.694;6.256;2023-11-21T12:21:36;21.37;;;10.90;;
3922;SDS011;1976;51.694;6.256;2023-11-21T12:24:02;16.77;;;12.00;;
3922;SDS011;1976;51.694;6.256;2023-11-21T12:26:28;18.20;;;12.23;;
3922;SDS011;1976;51.694;6.256;2023-11-21T12:28:54;21.33;;;12.17;;
3922;SDS011;1976;51.694;6.256;2023-11-21T12:31:20;20.23;;;13.27;;
3922;SDS011;1976;51.694;6.256;2023-11-21T12:33:46;25.50;;;13.93;;
3922;SDS011;1976;51.694;6.256;2023-11-21T12:36:12;24.37;;;15.57;;
3922;SDS011;1976;51.694;6.256;2023-11-21T12:38:38;22.70;;;12.60;;
3922;SDS011;1976;51.694;6.256;2023-11-21T12:41:04;22.10;;;14.00;;
3922;SDS011;1976;51.694;6.256;2023-11-21T12:43:31;28.37;;;15.07;;
3922;SDS011;1976;51.694;6.256;2023-11-21T12:46:06;23.10;;;13.37;;
3922;SDS011;1976;51.694;6.256;2023-11-21T12:48:39;18.40;;;11.03;;
3922;SDS011;1976;51.694;6.256;2023-11-21T12:51:09;16.30;;;10.90;;
3922;SDS011;1976;51.694;6.256;2023-11-21T12:53:37;19.73;;;11.10;;
3922;SDS011;1976;51.694;6.256;2023-11-21T12:56:06;23.27;;;12.67;;
3922;SDS011;1976;51.694;6.256;2023-11-21T12:58:34;27.87;;;12.47;;
3922;SDS011;1976;51.694;6.256;2023-11-21T13:01:01;23.90;;;14.20;;
3922;SDS011;1976;51.694;6.256;2023-11-21T13:03:30;23.50;;;12.90;;
3922;SDS011;1976;51.694;6.256;2023-11-21T13:05:56;30.60;;;11.67;;
3922;SDS011;1976;51.694;6.256;2023-11-21T13:08:24;22.70;;;13.30;;
3922;SDS011;1976;51.694;6.256;2023-11-21T13:10:53;25.40;;;13.20;;
3922;SDS011;1976;51.694;6.256;2023-11-21T13:13:22;20.27;;;10.67;;
3922;SDS011;1976;51.694;6.256;2023-11-21T13:15:49;23.50;;;11.67;;
3922;SDS011;1976;51.694;6.256;2023-11-21T13:18:15;22.67;;;11.03;;
3922;SDS011;1976;51.694;6.256;2023-11-21T13:20:41;17.87;;;10.97;;
3922;SDS011;1976;51.694;6.256;2023-11-21T13:23:11;16.50;;;9.70;;
3922;SDS011;1976;51.694;6.256;2023-11-21T13:25:37;14.50;;;9.87;;
3922;SDS011;1976;51.694;6.256;2023-11-21T13:28:06;19.80;;;10.70;;
3922;SDS011;1976;51.694;6.256;2023-11-21T13:30:32;15.00;;;9.33;;
3922;SDS011;1976;51.694;6.256;2023-11-21T13:33:05;21.07;;;8.20;;
3922;SDS011;1976;51.694;6.256;2023-11-21T13:35:35;18.63;;;8.47;;
3922;SDS011;1976;51.694;6.256;2023-11-21T13:38:07;16.73;;;8.80;;
3922;SDS011;1976;51.694;6.256;2023-11-21T13:40:34;22.43;;;9.77;;
3922;SDS011;1976;51.694;6.256;2023-11-21T13:43:15;22.63;;;10.53;;
3922;SDS011;1976;51.694;6.256;2023-11-21T13:45:45;15.37;;;8.73;;
3922;SDS011;1976;51.694;6.256;2023-11-21T13:48:12;18.87;;;9.70;;
3922;SDS011;1976;51.694;6.256;2023-11-21T13:50:39;16.67;;;10.07;;
3922;SDS011;1976;51.694;6.256;2023-11-21T13:53:13;18.60;;;11.07;;
3922;SDS011;1976;51.694;6.256;2023-11-21T13:55:48;20.67;;;11.10;;
3922;SDS011;1976;51.694;6.256;2023-11-21T13:58:15;22.10;;;10.30;;
3922;SDS011;1976;51.694;6.256;2023-11-21T14:00:47;25.90;;;13.20;;
3922;SDS011;1976;51.694;6.256;2023-11-21T14:03:20;20.40;;;11.20;;
3922;SDS011;1976;51.694;6.256;2023-11-21T14:05:47;21.60;;;11.53;;
3922;SDS011;1976;51.694;6.256;2023-11-21T14:08:17;20.43;;;11.03;;
3922;SDS011;1976;51.694;6.256;2023-11-21T14:10:49;16.97;;;10.43;;
3922;SDS011;1976;51.694;6.256;2023-11-21T14:13:23;18.37;;;11.07;;
3922;SDS011;1976;51.694;6.256;2023-11-21T14:15:49;19.80;;;9.97;;
3922;SDS011;1976;51.694;6.256;2023-11-21T14:18:19;19.40;;;10.03;;
3922;SDS011;1976;51.694;6.256;2023-11-21T14:20:52;27.33;;;11.37;;
3922;SDS011;1976;51.694;6.256;2023-11-21T14:23:18;17.17;;;10.67;;
3922;SDS011;1976;51.694;6.256;2023-11-21T14:25:43;16.17;;;10.80;;
3922;SDS011;1976;51.694;6.256;2023-11-21T14:28:09;17.77;;;10.47;;
3922;SDS011;1976;51.694;6.256;2023-11-21T14:30:37;26.33;;;11.43;;
3922;SDS011;1976;51.694;6.256;2023-11-21T14:33:04;20.57;;;10.73;;
3922;SDS011;1976;51.694;6.256;2023-11-21T14:35:31;18.43;;;10.37;;
3922;SDS011;1976;51.694;6.256;2023-11-21T14:37:57;21.77;;;10.50;;
3922;SDS011;1976;51.694;6.256;2023-11-21T14:40:24;24.40;;;12.17;;
3922;SDS011;1976;51.694;6.256;2023-11-21T14:42:50;18.07;;;10.43;;
3922;SDS011;1976;51.694;6.256;2023-11-21T14:45:19;20.27;;;11.13;;
3922;SDS011;1976;51.694;6.256;2023-11-21T14:47:46;26.87;;;11.50;;
3922;SDS011;1976;51.694;6.256;2023-11-21T14:50:21;24.30;;;9.83;;
3922;SDS011;1976;51.694;6.256;2023-11-21T14:53:06;20.20;;;12.13;;
3922;SDS011;1976;51.694;6.256;2023-11-21T14:55:32;19.57;;;11.13;;
3922;SDS011;1976;51.694;6.256;2023-11-21T14:58:04;22.03;;;10.37;;
3922;SDS011;1976;51.694;6.256;2023-11-21T15:00:30;18.73;;;9.67;;
3922;SDS011;1976;51.694;6.256;2023-11-21T15:03:16;24.17;;;10.07;;
3922;SDS011;1976;51.694;6.256;2023-11-21T15:05:57;23.50;;;9.97;;
3922;SDS011;1976;51.694;6.256;2023-11-21T15:08:24;18.10;;;9.30;;